KCEF/CEF METAR and TAF weather

Enter ICAO airport designator
Station Type Date Time Source
KCEF METAR 2019/07/15 19:56 UTC NOAA

KCEF 151956Z 31011KT 10SM FEW060 SCT180 29/13 A2998 RMK AO2A SLP157 T02940127


Station Type Date Time Source
KCEF Decoded METAR 2019/07/15 19:56 UTC NOAA

Chicopee Falls / Westover Air Force Base, MA, United States (KCEF) 42-12N 072-32W 75M
Jul 15, 2019 - 03:56 PM EDT / 2019.07.15 1956 UTC
Wind: from the NW (310 degrees) at 13 MPH (11 KT):0
Visibility: 10 mile(s):0
Sky conditions: partly cloudy
Temperature: 84.9 F (29.4 C)
Dew Point: 54.9 F (12.7 C)
Relative Humidity: 35%
Pressure (altimeter): 29.98 in. Hg (1015 hPa)
ob: KCEF 151956Z 31011KT 10SM FEW060 SCT180 29/13 A2998 RMK AO2A SLP157 T02940127
cycle: 20

Station Type Date Time Source
KCEF TAF 2019/07/15 18:09 UTC NOAA

TAF TAF KCEF 151800Z 1518/1624 30009KT 9999 FEW050 SCT200 QNH2997INS
BECMG 1522/1523 VRB06KT 9999 SCT250 QNH3000INS
BECMG 1615/1616 22012KT 9999 FEW040 SCT130 BKN200 QNH3004INS
BECMG 1622/1623 19007KT 9999 FEW040 BKN130 BKN200 QNH3004INS TX30/1618Z TN16/1610Z

Example: see airport list